sensor_id;sensor_type;location;lat;lon;timestamp;pressure;altitude;pressure_sealevel;temperature;humidity
6393;BME280;3229;42.674;23.282;2023-03-25T00:02:13;94360.75;;;14.02;52.70
6393;BME280;3229;42.674;23.282;2023-03-25T00:04:41;94365.28;;;14.00;52.67
6393;BME280;3229;42.674;23.282;2023-03-25T00:07:07;94355.31;;;13.97;52.59
6393;BME280;3229;42.674;23.282;2023-03-25T00:09:35;94368.03;;;13.99;52.56
6393;BME280;3229;42.674;23.282;2023-03-25T00:12:01;94359.97;;;13.94;52.46
6393;BME280;3229;42.674;23.282;2023-03-25T00:14:30;94354.22;;;13.92;52.75
6393;BME280;3229;42.674;23.282;2023-03-25T00:16:57;94360.97;;;13.93;52.70
6393;BME280;3229;42.674;23.282;2023-03-25T00:19:25;94348.00;;;13.86;52.87
6393;BME280;3229;42.674;23.282;2023-03-25T00:21:52;94350.22;;;13.89;52.88
6393;BME280;3229;42.674;23.282;2023-03-25T00:24:19;94344.44;;;13.87;52.98
6393;BME280;3229;42.674;23.282;2023-03-25T00:26:46;94342.84;;;13.86;52.97
6393;BME280;3229;42.674;23.282;2023-03-25T00:29:14;94337.84;;;13.85;52.85
6393;BME280;3229;42.674;23.282;2023-03-25T00:31:42;94338.03;;;13.83;53.00
6393;BME280;3229;42.674;23.282;2023-03-25T00:34:09;94339.94;;;13.81;53.01
6393;BME280;3229;42.674;23.282;2023-03-25T00:36:39;94337.72;;;13.78;53.20
6393;BME280;3229;42.674;23.282;2023-03-25T00:39:08;94341.25;;;13.77;53.03
6393;BME280;3229;42.674;23.282;2023-03-25T00:41:35;94342.22;;;13.76;53.07
6393;BME280;3229;42.674;23.282;2023-03-25T00:44:03;94339.81;;;13.74;53.21
6393;BME280;3229;42.674;23.282;2023-03-25T00:46:31;94259.50;;;13.25;53.29
6393;BME280;3229;42.674;23.282;2023-03-25T00:49:00;94325.41;;;13.65;53.22
6393;BME280;3229;42.674;23.282;2023-03-25T00:51:27;94326.69;;;13.69;53.57
6393;BME280;3229;42.674;23.282;2023-03-25T00:53:57;94330.19;;;13.68;53.44
6393;BME280;3229;42.674;23.282;2023-03-25T00:56:25;94326.34;;;13.64;53.44
6393;BME280;3229;42.674;23.282;2023-03-25T00:58:51;94326.19;;;13.66;53.44
6393;BME280;3229;42.674;23.282;2023-03-25T01:01:19;94325.53;;;13.64;53.53
6393;BME280;3229;42.674;23.282;2023-03-25T01:03:48;94288.69;;;13.40;53.78
6393;BME280;3229;42.674;23.282;2023-03-25T01:06:24;94321.88;;;13.58;53.59
6393;BME280;3229;42.674;23.282;2023-03-25T01:08:54;94313.56;;;13.56;53.80
6393;BME280;3229;42.674;23.282;2023-03-25T01:11:23;94311.13;;;13.54;53.95
6393;BME280;3229;42.674;23.282;2023-03-25T01:13:52;94303.28;;;13.48;53.80
6393;BME280;3229;42.674;23.282;2023-03-25T01:16:19;94312.28;;;13.52;53.87
6393;BME280;3229;42.674;23.282;2023-03-25T01:18:45;94312.41;;;13.50;53.90
6393;BME280;3229;42.674;23.282;2023-03-25T01:21:12;94304.09;;;13.48;53.95
6393;BME280;3229;42.674;23.282;2023-03-25T01:23:41;94296.53;;;13.47;53.95
6393;BME280;3229;42.674;23.282;2023-03-25T01:26:08;94294.94;;;13.46;54.24
6393;BME280;3229;42.674;23.282;2023-03-25T01:28:34;94289.19;;;13.44;53.86
6393;BME280;3229;42.674;23.282;2023-03-25T01:31:02;94281.63;;;13.42;53.97
6393;BME280;3229;42.674;23.282;2023-03-25T01:33:29;94280.34;;;13.38;54.06
6393;BME280;3229;42.674;23.282;2023-03-25T01:35:57;94281.97;;;13.39;54.28
6393;BME280;3229;42.674;23.282;2023-03-25T01:38:24;94283.56;;;13.40;54.14
6393;BME280;3229;42.674;23.282;2023-03-25T01:40:53;94281.31;;;13.37;54.33
6393;BME280;3229;42.674;23.282;2023-03-25T01:43:20;94272.34;;;13.33;54.41
6393;BME280;3229;42.674;23.282;2023-03-25T01:45:48;94266.22;;;13.34;54.35
6393;BME280;3229;42.674;23.282;2023-03-25T01:48:17;94265.78;;;13.30;54.32
6393;BME280;3229;42.674;23.282;2023-03-25T01:50:50;94272.50;;;13.32;54.19
6393;BME280;3229;42.674;23.282;2023-03-25T01:53:19;94265.78;;;13.30;54.40
6393;BME280;3229;42.674;23.282;2023-03-25T01:55:46;94277.81;;;13.30;54.45
6393;BME280;3229;42.674;23.282;2023-03-25T01:58:16;94273.00;;;13.27;54.41
6393;BME280;3229;42.674;23.282;2023-03-25T02:00:44;94259.97;;;13.20;54.45
6393;BME280;3229;42.674;23.282;2023-03-25T02:03:12;94274.78;;;13.26;54.52
6393;BME280;3229;42.674;23.282;2023-03-25T02:05:45;94271.56;;;13.24;54.65
6393;BME280;3229;42.674;23.282;2023-03-25T02:08:14;94268.38;;;13.22;54.78
6393;BME280;3229;42.674;23.282;2023-03-25T02:10:44;94263.34;;;13.21;54.70
6393;BME280;3229;42.674;23.282;2023-03-25T02:13:12;94264.50;;;13.18;54.73
6393;BME280;3229;42.674;23.282;2023-03-25T02:16:02;94262.91;;;13.17;55.00
6393;BME280;3229;42.674;23.282;2023-03-25T02:18:39;94260.47;;;13.16;54.81
6393;BME280;3229;42.674;23.282;2023-03-25T02:21:29;94269.31;;;13.13;54.84
6393;BME280;3229;42.674;23.282;2023-03-25T02:27:17;94251.84;;;13.09;55.18
6393;BME280;3229;42.674;23.282;2023-03-25T02:30:24;94253.75;;;13.06;55.03
6393;BME280;3229;42.674;23.282;2023-03-25T02:33:22;94233.25;;;12.90;55.26
6393;BME280;3229;42.674;23.282;2023-03-25T02:36:17;94254.91;;;13.04;55.18
6393;BME280;3229;42.674;23.282;2023-03-25T02:38:51;94250.41;;;12.98;55.19
6393;BME280;3229;42.674;23.282;2023-03-25T02:41:28;94253.63;;;13.00;55.35
6393;BME280;3229;42.674;23.282;2023-03-25T02:44:02;94248.50;;;13.00;55.34
6393;BME280;3229;42.674;23.282;2023-03-25T02:46:31;94246.88;;;12.99;55.43
6393;BME280;3229;42.674;23.282;2023-03-25T02:49:04;94254.75;;;12.97;55.32
6393;BME280;3229;42.674;23.282;2023-03-25T02:51:35;94248.00;;;12.96;55.28
6393;BME280;3229;42.674;23.282;2023-03-25T02:54:07;94241.28;;;12.95;55.41
6393;BME280;3229;42.674;23.282;2023-03-25T02:56:36;94250.09;;;12.93;55.40
6393;BME280;3229;42.674;23.282;2023-03-25T02:59:07;94240.94;;;12.90;55.68
6393;BME280;3229;42.674;23.282;2023-03-25T03:01:38;94242.56;;;12.91;55.81
6393;BME280;3229;42.674;23.282;2023-03-25T03:04:06;94246.72;;;12.92;55.61
6393;BME280;3229;42.674;23.282;2023-03-25T03:06:36;94240.16;;;12.90;55.63
6393;BME280;3229;42.674;23.282;2023-03-25T03:09:16;94239.34;;;12.89;55.48
6393;BME280;3229;42.674;23.282;2023-03-25T03:11:56;94234.38;;;12.88;55.80
6393;BME280;3229;42.674;23.282;2023-03-25T03:14:36;94238.88;;;12.86;55.56
6393;BME280;3229;42.674;23.282;2023-03-25T03:17:11;94241.59;;;12.84;55.67
6393;BME280;3229;42.674;23.282;2023-03-25T03:19:46;94237.59;;;12.81;55.85
6393;BME280;3229;42.674;23.282;2023-03-25T03:22:36;94235.38;;;12.78;55.85
6393;BME280;3229;42.674;23.282;2023-03-25T03:25:13;94242.09;;;12.79;55.94
6393;BME280;3229;42.674;23.282;2023-03-25T03:27:46;94254.13;;;12.79;55.96
6393;BME280;3229;42.674;23.282;2023-03-25T03:30:19;94241.28;;;12.79;55.85
6393;BME280;3229;42.674;23.282;2023-03-25T03:32:51;94231.84;;;12.71;55.94
6393;BME280;3229;42.674;23.282;2023-03-25T03:35:21;94229.09;;;12.73;55.83
6393;BME280;3229;42.674;23.282;2023-03-25T03:37:55;94252.03;;;12.74;56.07
6393;BME280;3229;42.674;23.282;2023-03-25T03:40:27;94249.00;;;12.71;56.04
6393;BME280;3229;42.674;23.282;2023-03-25T03:42:57;94251.41;;;12.72;56.03
6393;BME280;3229;42.674;23.282;2023-03-25T03:45:29;94256.53;;;12.72;56.22
6393;BME280;3229;42.674;23.282;2023-03-25T03:47:58;94247.22;;;12.71;56.22
6393;BME280;3229;42.674;23.282;2023-03-25T03:50:29;94253.47;;;12.69;56.17
6393;BME280;3229;42.674;23.282;2023-03-25T03:53:07;94247.53;;;12.68;56.32
6393;BME280;3229;42.674;23.282;2023-03-25T03:55:39;94256.22;;;12.67;56.34
6393;BME280;3229;42.674;23.282;2023-03-25T03:58:09;94224.94;;;12.47;56.32
6393;BME280;3229;42.674;23.282;2023-03-25T04:00:43;94257.31;;;12.65;56.47
6393;BME280;3229;42.674;23.282;2023-03-25T04:03:16;94254.13;;;12.63;56.42
6393;BME280;3229;42.674;23.282;2023-03-25T04:05:52;94256.03;;;12.61;56.50
6393;BME280;3229;42.674;23.282;2023-03-25T04:08:24;94244.03;;;12.53;56.49
6393;BME280;3229;42.674;23.282;2023-03-25T04:10:55;94249.31;;;12.60;56.48
6393;BME280;3229;42.674;23.282;2023-03-25T04:13:28;94251.06;;;12.59;56.51
6393;BME280;3229;42.674;23.282;2023-03-25T04:15:57;94246.91;;;12.58;56.49
6393;BME280;3229;42.674;23.282;2023-03-25T04:18:25;94247.09;;;12.57;56.38
6393;BME280;3229;42.674;23.282;2023-03-25T04:20:54;94256.53;;;12.56;56.56
6393;BME280;3229;42.674;23.282;2023-03-25T04:23:21;94227.19;;;12.42;56.54
6393;BME280;3229;42.674;23.282;2023-03-25T04:25:48;94244.53;;;12.57;56.71
6393;BME280;3229;42.674;23.282;2023-03-25T04:28:19;94242.75;;;12.57;56.53
6393;BME280;3229;42.674;23.282;2023-03-25T04:30:46;94244.34;;;12.58;56.57
6393;BME280;3229;42.674;23.282;2023-03-25T04:33:14;94247.72;;;12.59;56.84
6393;BME280;3229;42.674;23.282;2023-03-25T04:35:42;94251.56;;;12.63;56.61
6393;BME280;3229;42.674;23.282;2023-03-25T04:38:08;94249.63;;;12.65;56.55
6393;BME280;3229;42.674;23.282;2023-03-25T04:40:36;94257.19;;;12.66;56.66
6393;BME280;3229;42.674;23.282;2023-03-25T04:43:05;94255.09;;;12.70;56.58
6393;BME280;3229;42.674;23.282;2023-03-25T04:45:33;94256.38;;;12.74;56.64
6393;BME280;3229;42.674;23.282;2023-03-25T04:48:00;94251.69;;;12.77;56.35
6393;BME280;3229;42.674;23.282;2023-03-25T04:50:31;94255.72;;;12.80;56.57
6393;BME280;3229;42.674;23.282;2023-03-25T04:52:58;94255.88;;;12.87;56.52
6393;BME280;3229;42.674;23.282;2023-03-25T04:55:25;94256.34;;;12.90;56.61
6393;BME280;3229;42.674;23.282;2023-03-25T04:57:54;94257.78;;;13.01;56.22
6393;BME280;3229;42.674;23.282;2023-03-25T05:00:22;94263.53;;;13.11;56.38
6393;BME280;3229;42.674;23.282;2023-03-25T05:02:52;94247.66;;;13.24;56.40
6393;BME280;3229;42.674;23.282;2023-03-25T05:05:21;94252.56;;;13.42;55.78
6393;BME280;3229;42.674;23.282;2023-03-25T05:07:50;94250.88;;;13.65;55.65
6393;BME280;3229;42.674;23.282;2023-03-25T05:10:19;94259.22;;;13.98;54.97
6393;BME280;3229;42.674;23.282;2023-03-25T05:12:46;94254.47;;;14.41;54.92
6393;BME280;3229;42.674;23.282;2023-03-25T05:15:14;94260.34;;;14.96;55.25
6393;BME280;3229;42.674;23.282;2023-03-25T05:17:42;94258.84;;;15.61;55.29
6393;BME280;3229;42.674;23.282;2023-03-25T05:20:11;94261.50;;;16.33;55.39
6393;BME280;3229;42.674;23.282;2023-03-25T05:22:39;94254.56;;;17.04;55.30
6393;BME280;3229;42.674;23.282;2023-03-25T05:25:08;94259.88;;;17.94;54.90
6393;BME280;3229;42.674;23.282;2023-03-25T05:27:36;94258.88;;;18.76;54.38
6393;BME280;3229;42.674;23.282;2023-03-25T05:30:05;94257.63;;;19.65;53.79
6393;BME280;3229;42.674;23.282;2023-03-25T05:32:33;94258.44;;;20.55;52.99
6393;BME280;3229;42.674;23.282;2023-03-25T05:35:00;94251.41;;;21.37;52.08
6393;BME280;3229;42.674;23.282;2023-03-25T05:37:28;94253.56;;;22.32;51.35
6393;BME280;3229;42.674;23.282;2023-03-25T05:39:55;94266.38;;;23.17;50.21
6393;BME280;3229;42.674;23.282;2023-03-25T05:42:22;94245.34;;;23.83;49.32
6393;BME280;3229;42.674;23.282;2023-03-25T05:44:50;94265.38;;;24.74;48.60
6393;BME280;3229;42.674;23.282;2023-03-25T05:47:18;94271.22;;;25.44;47.79
6393;BME280;3229;42.674;23.282;2023-03-25T05:49:46;94266.84;;;26.10;46.67
6393;BME280;3229;42.674;23.282;2023-03-25T05:52:14;94275.72;;;26.80;45.96
6393;BME280;3229;42.674;23.282;2023-03-25T05:54:44;94264.75;;;27.52;45.52
6393;BME280;3229;42.674;23.282;2023-03-25T05:57:11;94269.88;;;28.32;44.61
6393;BME280;3229;42.674;23.282;2023-03-25T05:59:38;94267.69;;;29.02;43.80
6393;BME280;3229;42.674;23.282;2023-03-25T06:02:06;94275.03;;;29.71;42.88
6393;BME280;3229;42.674;23.282;2023-03-25T06:04:34;94266.34;;;30.41;42.27
6393;BME280;3229;42.674;23.282;2023-03-25T06:07:06;94249.63;;;31.00;41.16
6393;BME280;3229;42.674;23.282;2023-03-25T06:09:39;94265.66;;;31.72;40.75
6393;BME280;3229;42.674;23.282;2023-03-25T06:12:12;94263.41;;;32.32;39.96
6393;BME280;3229;42.674;23.282;2023-03-25T06:14:39;94254.22;;;32.86;39.20
6393;BME280;3229;42.674;23.282;2023-03-25T06:17:10;94258.91;;;33.41;38.86
6393;BME280;3229;42.674;23.282;2023-03-25T06:19:37;94263.00;;;33.52;37.58
6393;BME280;3229;42.674;23.282;2023-03-25T06:22:08;94265.00;;;33.41;37.34
6393;BME280;3229;42.674;23.282;2023-03-25T06:24:35;94259.19;;;33.26;36.87
6393;BME280;3229;42.674;23.282;2023-03-25T06:27:02;94257.28;;;33.12;36.34
6393;BME280;3229;42.674;23.282;2023-03-25T06:29:32;94268.81;;;33.03;36.15
6393;BME280;3229;42.674;23.282;2023-03-25T06:32:01;94261.56;;;32.89;35.80
6393;BME280;3229;42.674;23.282;2023-03-25T06:34:28;94263.81;;;32.82;36.08
6393;BME280;3229;42.674;23.282;2023-03-25T06:36:57;94260.44;;;32.77;35.86
6393;BME280;3229;42.674;23.282;2023-03-25T06:39:24;94271.88;;;32.72;35.59
6393;BME280;3229;42.674;23.282;2023-03-25T06:41:51;94272.47;;;32.69;35.45
6393;BME280;3229;42.674;23.282;2023-03-25T06:44:17;94273.34;;;32.64;35.42
6393;BME280;3229;42.674;23.282;2023-03-25T06:46:46;94268.69;;;32.56;35.35
6393;BME280;3229;42.674;23.282;2023-03-25T06:49:13;94277.69;;;32.55;34.94
6393;BME280;3229;42.674;23.282;2023-03-25T06:51:40;94271.75;;;32.44;34.72
6393;BME280;3229;42.674;23.282;2023-03-25T06:54:07;94284.97;;;32.44;34.67
6393;BME280;3229;42.674;23.282;2023-03-25T06:56:34;94285.28;;;32.43;34.49
6393;BME280;3229;42.674;23.282;2023-03-25T06:59:01;94286.31;;;32.42;34.47
6393;BME280;3229;42.674;23.282;2023-03-25T07:01:27;94274.78;;;32.33;34.51
6393;BME280;3229;42.674;23.282;2023-03-25T07:03:56;94281.56;;;32.44;34.47
6393;BME280;3229;42.674;23.282;2023-03-25T07:06:23;94287.97;;;32.38;34.58
6393;BME280;3229;42.674;23.282;2023-03-25T07:08:50;94279.06;;;32.29;34.56
6393;BME280;3229;42.674;23.282;2023-03-25T07:11:23;94276.47;;;32.23;34.42
6393;BME280;3229;42.674;23.282;2023-03-25T07:13:50;94261.00;;;32.12;34.74
6393;BME280;3229;42.674;23.282;2023-03-25T07:16:18;94277.63;;;32.17;34.58
6393;BME280;3229;42.674;23.282;2023-03-25T07:18:45;94272.31;;;32.17;34.50
6393;BME280;3229;42.674;23.282;2023-03-25T07:21:13;94267.31;;;32.16;34.41
6393;BME280;3229;42.674;23.282;2023-03-25T07:23:40;94270.69;;;32.21;34.33
6393;BME280;3229;42.674;23.282;2023-03-25T07:26:07;94285.50;;;32.22;34.45
6393;BME280;3229;42.674;23.282;2023-03-25T07:28:34;94278.97;;;32.15;34.60
6393;BME280;3229;42.674;23.282;2023-03-25T07:31:05;94252.72;;;31.94;34.77
6393;BME280;3229;42.674;23.282;2023-03-25T07:33:32;94281.44;;;32.06;34.52
6393;BME280;3229;42.674;23.282;2023-03-25T07:35:58;94280.44;;;32.02;34.94
6393;BME280;3229;42.674;23.282;2023-03-25T07:38:27;94271.94;;;32.05;35.11
6393;BME280;3229;42.674;23.282;2023-03-25T07:40:53;94272.44;;;32.07;35.03
6393;BME280;3229;42.674;23.282;2023-03-25T07:43:20;94270.56;;;32.08;34.98
6393;BME280;3229;42.674;23.282;2023-03-25T07:45:47;94262.44;;;32.04;33.69
6393;BME280;3229;42.674;23.282;2023-03-25T07:48:14;94263.28;;;32.00;33.26
6393;BME280;3229;42.674;23.282;2023-03-25T07:50:42;94259.81;;;31.99;33.69
6393;BME280;3229;42.674;23.282;2023-03-25T07:53:10;94258.47;;;32.02;33.73
6393;BME280;3229;42.674;23.282;2023-03-25T07:55:38;94250.09;;;31.94;33.32
6393;BME280;3229;42.674;23.282;2023-03-25T07:58:05;94247.81;;;31.88;33.29
6393;BME280;3229;42.674;23.282;2023-03-25T08:00:31;94246.50;;;31.85;33.43
6393;BME280;3229;42.674;23.282;2023-03-25T08:02:58;94242.53;;;31.83;33.26
6393;BME280;3229;42.674;23.282;2023-03-25T08:05:25;94239.66;;;31.79;33.57
6393;BME280;3229;42.674;23.282;2023-03-25T08:07:52;94234.44;;;31.74;33.25
6393;BME280;3229;42.674;23.282;2023-03-25T08:10:20;94229.19;;;31.69;33.40
6393;BME280;3229;42.674;23.282;2023-03-25T08:12:50;94220.88;;;31.57;33.84
6393;BME280;3229;42.674;23.282;2023-03-25T08:15:17;94224.53;;;31.61;33.68
6393;BME280;3229;42.674;23.282;2023-03-25T08:17:45;94227.78;;;31.53;33.86
6393;BME280;3229;42.674;23.282;2023-03-25T08:20:12;94217.78;;;31.50;33.84
6393;BME280;3229;42.674;23.282;2023-03-25T08:22:39;94222.28;;;31.49;33.91
6393;BME280;3229;42.674;23.282;2023-03-25T08:25:06;94217.38;;;31.37;33.87
6393;BME280;3229;42.674;23.282;2023-03-25T08:27:33;94213.00;;;31.17;33.99
6393;BME280;3229;42.674;23.282;2023-03-25T08:30:02;94216.34;;;30.99;34.30
6393;BME280;3229;42.674;23.282;2023-03-25T08:32:30;94209.41;;;30.79;34.26
6393;BME280;3229;42.674;23.282;2023-03-25T08:34:57;94215.50;;;30.69;34.69
6393;BME280;3229;42.674;23.282;2023-03-25T08:37:23;94212.44;;;30.57;34.60
6393;BME280;3229;42.674;23.282;2023-03-25T08:39:50;94206.41;;;30.46;35.02
6393;BME280;3229;42.674;23.282;2023-03-25T08:42:20;94203.81;;;30.41;34.78
6393;BME280;3229;42.674;23.282;2023-03-25T08:44:47;94206.72;;;30.40;34.81
6393;BME280;3229;42.674;23.282;2023-03-25T08:47:15;94201.97;;;30.42;34.79
6393;BME280;3229;42.674;23.282;2023-03-25T08:49:42;94194.03;;;30.42;34.80
6393;BME280;3229;42.674;23.282;2023-03-25T08:52:08;94191.72;;;30.30;34.44
6393;BME280;3229;42.674;23.282;2023-03-25T08:54:35;94205.81;;;30.10;35.03
6393;BME280;3229;42.674;23.282;2023-03-25T08:57:02;94199.31;;;29.87;35.25
6393;BME280;3229;42.674;23.282;2023-03-25T08:59:30;94198.59;;;29.71;35.43
6393;BME280;3229;42.674;23.282;2023-03-25T09:01:57;94195.72;;;29.58;35.70
6393;BME280;3229;42.674;23.282;2023-03-25T09:04:25;94196.25;;;29.44;35.63
6393;BME280;3229;42.674;23.282;2023-03-25T09:06:51;94191.28;;;29.38;35.66
6393;BME280;3229;42.674;23.282;2023-03-25T09:09:18;94188.66;;;29.33;35.72
6393;BME280;3229;42.674;23.282;2023-03-25T09:11:45;94187.59;;;29.29;35.51
6393;BME280;3229;42.674;23.282;2023-03-25T09:14:12;94180.25;;;29.20;35.78
6393;BME280;3229;42.674;23.282;2023-03-25T09:16:40;94185.53;;;29.10;35.64
6393;BME280;3229;42.674;23.282;2023-03-25T09:19:07;94167.09;;;29.00;35.74
6393;BME280;3229;42.674;23.282;2023-03-25T09:21:35;94157.84;;;28.92;35.99
6393;BME280;3229;42.674;23.282;2023-03-25T09:24:03;94174.22;;;28.99;36.92
6393;BME280;3229;42.674;23.282;2023-03-25T09:26:30;94166.31;;;28.89;38.79
6393;BME280;3229;42.674;23.282;2023-03-25T09:28:57;94170.78;;;28.84;40.34
6393;BME280;3229;42.674;23.282;2023-03-25T09:31:25;94164.22;;;28.76;42.70
6393;BME280;3229;42.674;23.282;2023-03-25T09:33:52;94162.09;;;28.78;43.86
6393;BME280;3229;42.674;23.282;2023-03-25T09:36:19;94148.66;;;28.74;45.63
6393;BME280;3229;42.674;23.282;2023-03-25T09:38:47;94163.66;;;28.84;47.38
6393;BME280;3229;42.674;23.282;2023-03-25T09:41:25;94168.16;;;28.89;48.98
6393;BME280;3229;42.674;23.282;2023-03-25T09:44:00;94159.19;;;28.95;49.65
6393;BME280;3229;42.674;23.282;2023-03-25T09:46:30;94154.72;;;29.06;50.34
6393;BME280;3229;42.674;23.282;2023-03-25T09:48:57;94145.47;;;29.13;51.12
6393;BME280;3229;42.674;23.282;2023-03-25T09:51:28;94153.38;;;29.18;52.17
6393;BME280;3229;42.674;23.282;2023-03-25T09:54:02;94151.81;;;29.17;53.06
6393;BME280;3229;42.674;23.282;2023-03-25T09:56:33;94147.59;;;29.16;53.93
6393;BME280;3229;42.674;23.282;2023-03-25T09:59:04;94147.59;;;29.16;55.33
6393;BME280;3229;42.674;23.282;2023-03-25T10:01:36;94142.59;;;29.15;56.18
6393;BME280;3229;42.674;23.282;2023-03-25T10:04:21;94143.91;;;29.17;57.00
6393;BME280;3229;42.674;23.282;2023-03-25T10:06:57;94134.94;;;29.23;57.53
6393;BME280;3229;42.674;23.282;2023-03-25T10:09:45;94138.31;;;29.34;57.70
6393;BME280;3229;42.674;23.282;2023-03-25T10:12:26;94121.72;;;29.39;58.37
6393;BME280;3229;42.674;23.282;2023-03-25T10:15:05;94123.25;;;29.50;58.01
6393;BME280;3229;42.674;23.282;2023-03-25T10:17:43;94113.50;;;29.56;58.64
6393;BME280;3229;42.674;23.282;2023-03-25T10:20:21;94107.44;;;29.60;59.06
6393;BME280;3229;42.674;23.282;2023-03-25T10:22:59;94110.28;;;29.69;59.28
6393;BME280;3229;42.674;23.282;2023-03-25T10:25:33;94094.97;;;29.76;58.87
6393;BME280;3229;42.674;23.282;2023-03-25T10:28:04;94098.88;;;29.84;59.49
6393;BME280;3229;42.674;23.282;2023-03-25T10:30:33;94090.66;;;29.90;59.87
6393;BME280;3229;42.674;23.282;2023-03-25T10:33:04;94087.22;;;29.95;59.68
6393;BME280;3229;42.674;23.282;2023-03-25T10:35:36;94089.56;;;30.02;60.22
6393;BME280;3229;42.674;23.282;2023-03-25T10:38:09;94091.13;;;30.03;59.97
6393;BME280;3229;42.674;23.282;2023-03-25T10:40:41;94079.22;;;30.05;60.85
6393;BME280;3229;42.674;23.282;2023-03-25T10:43:14;94084.50;;;30.05;60.95
6393;BME280;3229;42.674;23.282;2023-03-25T10:45:44;94077.41;;;30.06;61.42
6393;BME280;3229;42.674;23.282;2023-03-25T10:48:17;94071.88;;;30.02;62.45
6393;BME280;3229;42.674;23.282;2023-03-25T10:50:46;94074.56;;;29.97;62.33
6393;BME280;3229;42.674;23.282;2023-03-25T10:53:19;94062.72;;;29.89;63.78
6393;BME280;3229;42.674;23.282;2023-03-25T10:55:48;94059.38;;;29.73;63.90
6393;BME280;3229;42.674;23.282;2023-03-25T10:58:18;94061.78;;;29.75;64.56
6393;BME280;3229;42.674;23.282;2023-03-25T11:00:44;94053.88;;;29.75;64.57
6393;BME280;3229;42.674;23.282;2023-03-25T11:03:15;94047.56;;;29.71;64.96
6393;BME280;3229;42.674;23.282;2023-03-25T11:05:43;94048.06;;;29.73;64.65
6393;BME280;3229;42.674;23.282;2023-03-25T11:08:13;94046.47;;;29.77;65.36
6393;BME280;3229;42.674;23.282;2023-03-25T11:10:47;94039.09;;;29.74;65.79
6393;BME280;3229;42.674;23.282;2023-03-25T11:13:16;94030.41;;;29.73;66.05
6393;BME280;3229;42.674;23.282;2023-03-25T11:15:46;94007.28;;;29.55;66.30
6393;BME280;3229;42.674;23.282;2023-03-25T11:18:19;94030.22;;;29.60;67.38
6393;BME280;3229;42.674;23.282;2023-03-25T11:20:48;94021.81;;;29.47;67.62
6393;BME280;3229;42.674;23.282;2023-03-25T11:23:21;94019.22;;;29.42;67.57
6393;BME280;3229;42.674;23.282;2023-03-25T11:25:53;94016.84;;;29.46;67.68
6393;BME280;3229;42.674;23.282;2023-03-25T11:28:25;94020.53;;;29.45;67.44
6393;BME280;3229;42.674;23.282;2023-03-25T11:31:07;94021.03;;;29.47;67.61
6393;BME280;3229;42.674;23.282;2023-03-25T11:33:34;94018.13;;;29.48;67.16
6393;BME280;3229;42.674;23.282;2023-03-25T11:36:22;94004.13;;;29.53;67.33
6393;BME280;3229;42.674;23.282;2023-03-25T11:38:55;93999.91;;;29.57;67.05
6393;BME280;3229;42.674;23.282;2023-03-25T11:41:27;93992.78;;;29.58;66.53
6393;BME280;3229;42.674;23.282;2023-03-25T11:43:54;93999.59;;;29.69;66.46
6393;BME280;3229;42.674;23.282;2023-03-25T11:46:22;93993.25;;;29.70;66.16
6393;BME280;3229;42.674;23.282;2023-03-25T11:48:49;93992.22;;;29.71;66.45
6393;BME280;3229;42.674;23.282;2023-03-25T11:51:19;93987.19;;;29.69;66.42
6393;BME280;3229;42.674;23.282;2023-03-25T11:53:49;93987.47;;;29.68;66.60
6393;BME280;3229;42.674;23.282;2023-03-25T11:56:25;93979.03;;;29.66;66.79
6393;BME280;3229;42.674;23.282;2023-03-25T11:58:56;93977.22;;;29.66;67.49
6393;BME280;3229;42.674;23.282;2023-03-25T12:01:27;93975.66;;;29.60;68.01
6393;BME280;3229;42.674;23.282;2023-03-25T12:04:07;93975.72;;;29.50;68.25
6393;BME280;3229;42.674;23.282;2023-03-25T12:06:51;93982.09;;;29.39;69.00
6393;BME280;3229;42.674;23.282;2023-03-25T12:09:18;93975.31;;;29.28;69.19
6393;BME280;3229;42.674;23.282;2023-03-25T12:11:54;93962.72;;;29.19;69.50
6393;BME280;3229;42.674;23.282;2023-03-25T12:14:33;93965.13;;;29.11;70.30
6393;BME280;3229;42.674;23.282;2023-03-25T12:17:05;93950.97;;;28.96;70.20
6393;BME280;3229;42.674;23.282;2023-03-25T12:19:43;93964.94;;;28.87;70.76
6393;BME280;3229;42.674;23.282;2023-03-25T12:22:25;93948.97;;;28.63;71.40
6393;BME280;3229;42.674;23.282;2023-03-25T12:25:16;93968.19;;;28.63;71.85
6393;BME280;3229;42.674;23.282;2023-03-25T12:28:03;93973.72;;;28.52;72.13
6393;BME280;3229;42.674;23.282;2023-03-25T12:30:50;93970.06;;;28.42;71.99
6393;BME280;3229;42.674;23.282;2023-03-25T12:33:30;93967.97;;;28.39;71.67
6393;BME280;3229;42.674;23.282;2023-03-25T12:36:14;93968.47;;;28.36;71.72
6393;BME280;3229;42.674;23.282;2023-03-25T12:38:50;93970.31;;;28.31;71.78
6393;BME280;3229;42.674;23.282;2023-03-25T12:41:21;93960.88;;;28.24;72.13
6393;BME280;3229;42.674;23.282;2023-03-25T12:43:58;93959.81;;;28.10;72.55
6393;BME280;3229;42.674;23.282;2023-03-25T12:46:53;93971.66;;;28.08;72.86
6393;BME280;3229;42.674;23.282;2023-03-25T12:49:38;93965.59;;;27.97;73.21
6393;BME280;3229;42.674;23.282;2023-03-25T12:52:11;93967.47;;;27.91;73.34
6393;BME280;3229;42.674;23.282;2023-03-25T12:54:53;93966.41;;;27.87;73.24
6393;BME280;3229;42.674;23.282;2023-03-25T12:57:35;93925.38;;;27.56;73.51
6393;BME280;3229;42.674;23.282;2023-03-25T13:00:35;93964.00;;;27.70;74.09
6393;BME280;3229;42.674;23.282;2023-03-25T13:03:17;93966.09;;;27.58;74.06
6393;BME280;3229;42.674;23.282;2023-03-25T13:05:49;93915.59;;;27.10;74.54
6393;BME280;3229;42.674;23.282;2023-03-25T13:08:23;93963.69;;;27.31;74.88
6393;BME280;3229;42.674;23.282;2023-03-25T13:10:57;93964.47;;;27.16;75.16
6393;BME280;3229;42.674;23.282;2023-03-25T13:13:28;93970.69;;;27.05;75.64
6393;BME280;3229;42.674;23.282;2023-03-25T13:16:02;93949.84;;;26.78;75.74
6393;BME280;3229;42.674;23.282;2023-03-25T13:18:33;93961.91;;;26.74;76.42
6393;BME280;3229;42.674;23.282;2023-03-25T13:21:04;93967.06;;;26.59;76.39
6393;BME280;3229;42.674;23.282;2023-03-25T13:23:34;93966.19;;;26.43;76.73
6393;BME280;3229;42.674;23.282;2023-03-25T13:26:04;93973.69;;;26.29;76.92
6393;BME280;3229;42.674;23.282;2023-03-25T13:28:36;93969.66;;;26.16;77.12
6393;BME280;3229;42.674;23.282;2023-03-25T13:31:08;93979.31;;;26.06;77.77
6393;BME280;3229;42.674;23.282;2023-03-25T13:33:40;93983.13;;;25.93;77.76